Boris Syromyatnikov — UCUF — position and weather

sailwx.info

Track history (hours):
 
Tides and Currents Weather Stations Pressure Air Temp Water Temp Dewpoint Dewpoint Depression Visibility Wind Speed Wind Dir Waves Ship Positions

Boris Syromyatnikov

Last reported at 2015-Feb-13 14:34 UTC. Time now 2015-Mar-28 14:19 UTC.
Position N 70°55' E 040°26'.
Warning: this ship's position is 42 days out of date.

Length 120 m; beam 19 m.

Type: Fishing. MMSI: 273529800.

Date/timePositionNaut miles runAvg speedWind from/ knotsBaromVisibWave heightAir tempDewpointWater temp
2015-Feb-13 14:34N 70°55' E 040°26'4 3.6
2015-Feb-13 13:33N 70°52' E 040°23'1 0.9
2015-Feb-13 12:33N 70°52' E 040°20'4 3.7
2015-Feb-13 11:34N 70°49' E 040°20'8 7.5
2015-Feb-13 10:33N 70°41' E 040°14'4 3.8
2015-Feb-13 09:34N 70°40' E 040°03'3 3.0
2015-Feb-13 08:30N 70°37' E 040°04'2 1.6
2015-Feb-13 07:33N 70°36' E 040°08'1 1.3
2015-Feb-13 06:33N 70°36' E 040°12'1 1.3
2015-Feb-13 05:33N 70°36' E 040°15'2 1.8
2015-Feb-13 04:33N 70°34' E 040°18'2 1.6
2015-Feb-13 03:34N 70°33' E 040°21'2 1.5
2015-Feb-13 02:33N 70°32' E 040°25'1 1.3
2015-Feb-13 01:33N 70°32' E 040°29'1 1.2
2015-Feb-13 00:33N 70°32' E 040°32'1 0.8
2015-Feb-12 23:33N 70°31' E 040°34'1 0.8
2015-Feb-12 22:33N 70°31' E 040°35'1 0.8
2015-Feb-12 21:33N 70°30' E 040°36'1 0.7
2015-Feb-12 20:33N 70°30' E 040°38'1 1.0
2015-Feb-12 19:33N 70°30' E 040°41'2 1.5
2015-Feb-12 18:33N 70°29' E 040°46'2 2.3
2015-Feb-12 17:34N 70°29' E 040°52'8 7.6
2015-Feb-12 16:34N 70°31' E 040°30'6 6.1
2015-Feb-12 15:34N 70°33' E 040°13'17 0.5
2015-Feb-11 02:14N 70°47' E 039°42'3 3.8
2015-Feb-11 01:33N 70°49' E 039°45'4 3.9
2015-Feb-11 00:34N 70°52' E 039°51'4 3.9
2015-Feb-10 23:34N 70°56' E 039°53'4 4.1
2015-Feb-10 22:34N 71°00' E 039°50'1 1.1
2015-Feb-10 21:34N 70°60' E 039°47'7 7.4
2015-Feb-10 20:34N 70°53' E 039°53'7 6.8
2015-Feb-10 19:34N 70°48' E 040°06'3 2.9
2015-Feb-10 18:33N 70°49' E 040°14'4 3.6
2015-Feb-10 17:34N 70°52' E 040°19'4 3.7
2015-Feb-10 16:34N 70°56' E 040°21'  
2015-Feb-08 05:34N 70°20' E 039°26'8 7.7
2015-Feb-08 04:34N 70°26' E 039°11'5 4.5
2015-Feb-08 03:33N 70°22' E 039°18'3 2.6
2015-Feb-08 02:34N 70°21' E 039°25'1 1.2
2015-Feb-08 01:34N 70°22' E 039°25'4 3.8
2015-Feb-08 00:34N 70°21' E 039°15'4 3.7
2015-Feb-07 23:34N 70°23' E 039°24'2 2.2
2015-Feb-07 22:34N 70°25' E 039°28'5 4.8
2015-Feb-07 21:34N 70°22' E 039°17'3 2.6
2015-Feb-07 20:34N 70°24' E 039°21'4 4.4
2015-Feb-07 19:34N 70°28' E 039°27'4 3.6
2015-Feb-07 18:34N 70°25' E 039°21'4 3.7
2015-Feb-07 17:34N 70°28' E 039°16'1 0.9
2015-Feb-07 16:34N 70°27' E 039°16'1 1.2
2015-Feb-07 15:34N 70°26' E 039°17'10 3.2
2015-Feb-07 12:34N 70°35' E 039°30'3 3.2
2015-Feb-07 11:34N 70°37' E 039°36'3 2.5
2015-Feb-07 10:34N 70°35' E 039°33'1 1.0
2015-Feb-07 09:33N 70°36' E 039°30'2 2.1
2015-Feb-07 08:34N 70°38' E 039°31'1 1.2
2015-Feb-07 07:34N 70°37' E 039°28'4 3.7
2015-Feb-07 06:33N 70°41' E 039°28'4 3.9
2015-Feb-07 05:34N 70°45' E 039°33'4 3.7
2015-Feb-07 04:34N 70°42' E 039°26'2 2.3
2015-Feb-07 03:33N 70°43' E 039°32'4 3.6
2015-Feb-07 02:34N 70°43' E 039°43'2 2.3
2015-Feb-07 01:33N 70°44' E 039°36'4 3.8
2015-Feb-07 00:34N 70°47' E 039°35'3 3.3
2015-Feb-06 23:34N 70°44' E 039°30'2 2.4
2015-Feb-06 22:34N 70°45' E 039°37'1 0.7
2015-Feb-06 21:34N 70°45' E 039°39'2 2.4
2015-Feb-06 20:34N 70°46' E 039°32'1 0.7
2015-Feb-06 19:34N 70°47' E 039°32'1 0.6
2015-Feb-06 18:34N 70°47' E 039°30'1 1.3
2015-Feb-06 17:34N 70°47' E 039°34'2 1.6
2015-Feb-06 16:34N 70°47' E 039°29'2 1.9
2015-Feb-06 15:34N 70°45' E 039°25'4 4.4
2015-Feb-06 14:34N 70°44' E 039°12'1 1.3
2015-Feb-06 13:34N 70°44' E 039°16'4 3.7
2015-Feb-06 12:33N 70°47' E 039°23'3 2.9
2015-Feb-06 11:34N 70°47' E 039°32'3 3.3
2015-Feb-06 10:34N 70°47' E 039°42'2 2.4
2015-Feb-06 09:33N 70°49' E 039°44'3 2.8
2015-Feb-06 08:33N 70°48' E 039°36'7 0.5
2015-Feb-05 17:34N 70°47' E 039°14'6 6.1
2015-Feb-05 16:34N 70°53' E 039°12'2 2.5
2015-Feb-05 15:34N 70°50' E 039°10'2 2.1
2015-Feb-05 14:33N 70°48' E 039°11'4 4.0
2015-Feb-05 13:34N 70°52' E 039°07'1 1.4
2015-Feb-05 12:34N 70°51' E 039°08'1 1.3
2015-Feb-05 11:33N 70°49' E 039°08'5 5.3
2015-Feb-05 10:34N 70°55' E 039°10'3 3.1
2015-Feb-05 09:34N 70°52' E 039°07'3 3.2
2015-Feb-05 08:34N 70°49' E 039°09'4 4.3
2015-Feb-05 07:33N 70°53' E 039°07'3 3.0
2015-Feb-05 06:34N 70°54' E 038°58'2 1.6
2015-Feb-05 05:34N 70°53' E 039°01'3 3.4
2015-Feb-05 04:33N 70°53' E 039°12'4 4.1
2015-Feb-05 03:34N 70°54' E 038°59'4 4.4
2015-Feb-05 02:33N 70°54' E 038°46'4 3.8
2015-Feb-05 01:33N 70°51' E 038°39'6 5.6
2015-Feb-05 00:34N 70°55' E 038°50'6 5.5
2015-Feb-04 23:34N 70°59' E 038°60'3 3.0
2015-Feb-04 22:34N 70°57' E 038°55'4 3.7
2015-Feb-04 21:34N 70°55' E 038°45'4 4.1
2015-Feb-04 20:34N 70°58' E 038°52'4 3.6
2015-Feb-04 19:34N 70°55' E 038°48'12 2.3
2015-Feb-04 14:29N 70°44' E 038°40'1010.4
2015-Feb-04 13:34N 70°35' E 038°53'3 2.5
2015-Feb-04 12:34N 70°34' E 038°46'4 3.7
2015-Feb-04 11:34N 70°34' E 038°35'4 3.8
2015-Feb-04 10:33N 70°31' E 038°29'4 4.0
2015-Feb-04 09:34N 70°27' E 038°34'1 1.1
2015-Feb-04 08:34N 70°27' E 038°31'8 7.9
2015-Feb-04 07:34N 70°19' E 038°23'3 3.3
2015-Feb-04 06:34N 70°16' E 038°26'4 3.7
2015-Feb-04 05:34N 70°17' E 038°36'3 3.2
2015-Feb-04 04:34N 70°14' E 038°42'4 3.8
2015-Feb-04 03:34N 70°11' E 038°45'3 2.5
2015-Feb-04 02:34N 70°08' E 038°45'7 7.2
2015-Feb-04 01:33N 70°14' E 038°32'3 3.2
2015-Feb-04 00:33N 70°13' E 038°41'4 3.6
2015-Feb-03 23:33N 70°10' E 038°47'3 3.2
2015-Feb-03 22:33N 70°13' E 038°44'0 0.4
2015-Feb-03 21:33N 70°13' E 038°43'2 1.9
2015-Feb-03 20:34N 70°13' E 038°49'3 2.7
2015-Feb-03 19:34N 70°15' E 038°46'2 1.9
2015-Feb-03 18:34N 70°14' E 038°49'1 1.0
2015-Feb-03 17:33N 70°14' E 038°47'1 1.2
2015-Feb-03 16:34N 70°15' E 038°50'3 3.5
2015-Feb-03 15:34N 70°16' E 038°40'  
Track history (hours):
 
Tides and Currents Weather Stations Pressure Air Temp Water Temp Dewpoint Dewpoint Depression Visibility Wind Speed Wind Dir Waves Ship Positions

Boris Syromyatnikov

Last reported at 2015-Feb-13 14:34 UTC. Time now 2015-Mar-28 14:19 UTC.
Position N 70°55' E 040°26'.
Warning: this ship's position is 42 days out of date.

Length 120 m; beam 19 m.

Type: Fishing. MMSI: 273529800.

Date/timePositionNaut miles runAvg speedWind from/ knotsBaromVisibWave heightAir tempDewpointWater temp
2015-Feb-13 14:34N 70°55' E 040°26'4 3.6
2015-Feb-13 13:33N 70°52' E 040°23'1 0.9
2015-Feb-13 12:33N 70°52' E 040°20'4 3.7
2015-Feb-13 11:34N 70°49' E 040°20'8 7.5
2015-Feb-13 10:33N 70°41' E 040°14'4 3.8
2015-Feb-13 09:34N 70°40' E 040°03'3 3.0
2015-Feb-13 08:30N 70°37' E 040°04'2 1.6
2015-Feb-13 07:33N 70°36' E 040°08'1 1.3
2015-Feb-13 06:33N 70°36' E 040°12'1 1.3
2015-Feb-13 05:33N 70°36' E 040°15'2 1.8
2015-Feb-13 04:33N 70°34' E 040°18'2 1.6
2015-Feb-13 03:34N 70°33' E 040°21'2 1.5
2015-Feb-13 02:33N 70°32' E 040°25'1 1.3
2015-Feb-13 01:33N 70°32' E 040°29'1 1.2
2015-Feb-13 00:33N 70°32' E 040°32'1 0.8
2015-Feb-12 23:33N 70°31' E 040°34'1 0.8
2015-Feb-12 22:33N 70°31' E 040°35'1 0.8
2015-Feb-12 21:33N 70°30' E 040°36'1 0.7
2015-Feb-12 20:33N 70°30' E 040°38'1 1.0
2015-Feb-12 19:33N 70°30' E 040°41'2 1.5
2015-Feb-12 18:33N 70°29' E 040°46'2 2.3
2015-Feb-12 17:34N 70°29' E 040°52'8 7.6
2015-Feb-12 16:34N 70°31' E 040°30'6 6.1
2015-Feb-12 15:34N 70°33' E 040°13'17 0.5
2015-Feb-11 02:14N 70°47' E 039°42'3 3.8
2015-Feb-11 01:33N 70°49' E 039°45'4 3.9
2015-Feb-11 00:34N 70°52' E 039°51'4 3.9
2015-Feb-10 23:34N 70°56' E 039°53'4 4.1
2015-Feb-10 22:34N 71°00' E 039°50'1 1.1
2015-Feb-10 21:34N 70°60' E 039°47'7 7.4
2015-Feb-10 20:34N 70°53' E 039°53'7 6.8
2015-Feb-10 19:34N 70°48' E 040°06'3 2.9
2015-Feb-10 18:33N 70°49' E 040°14'4 3.6
2015-Feb-10 17:34N 70°52' E 040°19'4 3.7
2015-Feb-10 16:34N 70°56' E 040°21'  
2015-Feb-08 05:34N 70°20' E 039°26'8 7.7
2015-Feb-08 04:34N 70°26' E 039°11'5 4.5
2015-Feb-08 03:33N 70°22' E 039°18'3 2.6
2015-Feb-08 02:34N 70°21' E 039°25'1 1.2
2015-Feb-08 01:34N 70°22' E 039°25'4 3.8
2015-Feb-08 00:34N 70°21' E 039°15'4 3.7
2015-Feb-07 23:34N 70°23' E 039°24'2 2.2
2015-Feb-07 22:34N 70°25' E 039°28'5 4.8
2015-Feb-07 21:34N 70°22' E 039°17'3 2.6
2015-Feb-07 20:34N 70°24' E 039°21'4 4.4
2015-Feb-07 19:34N 70°28' E 039°27'4 3.6
2015-Feb-07 18:34N 70°25' E 039°21'4 3.7
2015-Feb-07 17:34N 70°28' E 039°16'1 0.9
2015-Feb-07 16:34N 70°27' E 039°16'1 1.2
2015-Feb-07 15:34N 70°26' E 039°17'10 3.2
2015-Feb-07 12:34N 70°35' E 039°30'3 3.2
2015-Feb-07 11:34N 70°37' E 039°36'3 2.5
2015-Feb-07 10:34N 70°35' E 039°33'1 1.0
2015-Feb-07 09:33N 70°36' E 039°30'2 2.1
2015-Feb-07 08:34N 70°38' E 039°31'1 1.2
2015-Feb-07 07:34N 70°37' E 039°28'4 3.7
2015-Feb-07 06:33N 70°41' E 039°28'4 3.9
2015-Feb-07 05:34N 70°45' E 039°33'4 3.7
2015-Feb-07 04:34N 70°42' E 039°26'2 2.3
2015-Feb-07 03:33N 70°43' E 039°32'4 3.6
2015-Feb-07 02:34N 70°43' E 039°43'2 2.3
2015-Feb-07 01:33N 70°44' E 039°36'4 3.8
2015-Feb-07 00:34N 70°47' E 039°35'3 3.3
2015-Feb-06 23:34N 70°44' E 039°30'2 2.4
2015-Feb-06 22:34N 70°45' E 039°37'1 0.7
2015-Feb-06 21:34N 70°45' E 039°39'2 2.4
2015-Feb-06 20:34N 70°46' E 039°32'1 0.7
2015-Feb-06 19:34N 70°47' E 039°32'1 0.6
2015-Feb-06 18:34N 70°47' E 039°30'1 1.3
2015-Feb-06 17:34N 70°47' E 039°34'2 1.6
2015-Feb-06 16:34N 70°47' E 039°29'2 1.9
2015-Feb-06 15:34N 70°45' E 039°25'4 4.4
2015-Feb-06 14:34N 70°44' E 039°12'1 1.3
2015-Feb-06 13:34N 70°44' E 039°16'4 3.7
2015-Feb-06 12:33N 70°47' E 039°23'3 2.9
2015-Feb-06 11:34N 70°47' E 039°32'3 3.3
2015-Feb-06 10:34N 70°47' E 039°42'2 2.4
2015-Feb-06 09:33N 70°49' E 039°44'3 2.8
2015-Feb-06 08:33N 70°48' E 039°36'7 0.5
2015-Feb-05 17:34N 70°47' E 039°14'6 6.1
2015-Feb-05 16:34N 70°53' E 039°12'2 2.5
2015-Feb-05 15:34N 70°50' E 039°10'2 2.1
2015-Feb-05 14:33N 70°48' E 039°11'4 4.0
2015-Feb-05 13:34N 70°52' E 039°07'1 1.4
2015-Feb-05 12:34N 70°51' E 039°08'1 1.3
2015-Feb-05 11:33N 70°49' E 039°08'5 5.3
2015-Feb-05 10:34N 70°55' E 039°10'3 3.1
2015-Feb-05 09:34N 70°52' E 039°07'3 3.2
2015-Feb-05 08:34N 70°49' E 039°09'4 4.3
2015-Feb-05 07:33N 70°53' E 039°07'3 3.0
2015-Feb-05 06:34N 70°54' E 038°58'2 1.6
2015-Feb-05 05:34N 70°53' E 039°01'3 3.4
2015-Feb-05 04:33N 70°53' E 039°12'4 4.1
2015-Feb-05 03:34N 70°54' E 038°59'4 4.4
2015-Feb-05 02:33N 70°54' E 038°46'4 3.8
2015-Feb-05 01:33N 70°51' E 038°39'6 5.6
2015-Feb-05 00:34N 70°55' E 038°50'6 5.5
2015-Feb-04 23:34N 70°59' E 038°60'3 3.0
2015-Feb-04 22:34N 70°57' E 038°55'4 3.7
2015-Feb-04 21:34N 70°55' E 038°45'4 4.1
2015-Feb-04 20:34N 70°58' E 038°52'4 3.6
2015-Feb-04 19:34N 70°55' E 038°48'12 2.3
2015-Feb-04 14:29N 70°44' E 038°40'1010.4
2015-Feb-04 13:34N 70°35' E 038°53'3 2.5
2015-Feb-04 12:34N 70°34' E 038°46'4 3.7
2015-Feb-04 11:34N 70°34' E 038°35'4 3.8
2015-Feb-04 10:33N 70°31' E 038°29'4 4.0
2015-Feb-04 09:34N 70°27' E 038°34'1 1.1
2015-Feb-04 08:34N 70°27' E 038°31'8 7.9
2015-Feb-04 07:34N 70°19' E 038°23'3 3.3
2015-Feb-04 06:34N 70°16' E 038°26'4 3.7
2015-Feb-04 05:34N 70°17' E 038°36'3 3.2
2015-Feb-04 04:34N 70°14' E 038°42'4 3.8
2015-Feb-04 03:34N 70°11' E 038°45'3 2.5
2015-Feb-04 02:34N 70°08' E 038°45'7 7.2
2015-Feb-04 01:33N 70°14' E 038°32'3 3.2
2015-Feb-04 00:33N 70°13' E 038°41'4 3.6
2015-Feb-03 23:33N 70°10' E 038°47'3 3.2
2015-Feb-03 22:33N 70°13' E 038°44'0 0.4
2015-Feb-03 21:33N 70°13' E 038°43'2 1.9
2015-Feb-03 20:34N 70°13' E 038°49'3 2.7
2015-Feb-03 19:34N 70°15' E 038°46'2 1.9
2015-Feb-03 18:34N 70°14' E 038°49'1 1.0
2015-Feb-03 17:33N 70°14' E 038°47'1 1.2
2015-Feb-03 16:34N 70°15' E 038°50'3 3.5
2015-Feb-03 15:34N 70°16' E 038°40'  

Dump ship's entire track history